Time;durP1;ratioP1;P1;durP2;ratioP2;P2;SDS_P1;SDS_P2;PMS_P1;PMS_P2;Temp;Humidity;BMP_temperature;BMP_pressure;BME280_temperature;BME280_humidity;BME280_pressure;Samples;Min_cycle;Max_cycle;Signal;HPM_P1;HPM_P2
2021/04/02 00:01:22;;;;;;;11.48;3.45;;;;;;;3.10;80.67;100978.00;5103995;28;20028;-67
2021/04/02 00:03:48;;;;;;;9.23;3.40;;;;;;;3.10;80.89;100980.56;5103693;28;20228;-69
2021/04/02 00:06:14;;;;;;;7.53;3.20;;;;;;;3.03;81.00;100960.69;5103920;28;20173;-67
2021/04/02 00:08:39;;;;;;;12.07;3.30;;;;;;;3.04;81.09;100967.56;5103515;28;20020;-67
2021/04/02 00:11:10;;;;;;;11.68;3.70;;;;;;;3.07;81.29;100967.66;5103724;28;20024;-68
2021/04/02 00:13:38;;;;;;;12.25;3.53;;;;;;;3.08;81.30;100973.66;5103892;28;20510;-68
2021/04/02 00:16:06;;;;;;;8.80;3.25;;;;;;;3.08;81.42;100981.38;5103660;28;20078;-69
2021/04/02 00:18:32;;;;;;;7.95;4.10;;;;;;;2.99;81.05;100960.56;5103534;28;20020;-69
2021/04/02 00:20:59;;;;;;;15.95;4.95;;;;;;;3.05;81.27;100968.44;5103745;28;20084;-68
2021/04/02 00:23:25;;;;;;;7.80;3.45;;;;;;;3.08;81.19;100966.81;5109712;28;20026;-68
2021/04/02 00:25:51;;;;;;;16.65;4.38;;;;;;;3.03;81.33;100959.81;5116424;28;20016;-67
2021/04/02 00:28:16;;;;;;;14.20;4.20;;;;;;;3.05;81.44;100963.31;5115709;28;20067;-67
2021/04/02 00:30:44;;;;;;;11.80;3.95;;;;;;;3.04;81.28;100954.72;5109483;28;20566;-66
2021/04/02 00:33:12;;;;;;;11.65;4.22;;;;;;;3.02;81.52;100956.38;5103416;28;20251;-67
2021/04/02 00:35:38;;;;;;;16.00;4.72;;;;;;;3.04;81.67;100952.16;5104242;28;20024;-66
2021/04/02 00:38:05;;;;;;;16.70;5.25;;;;;;;3.06;81.43;100954.78;5103403;28;20109;-67
2021/04/02 00:40:35;;;;;;;17.08;5.60;;;;;;;3.07;81.33;100949.69;5103679;28;20024;-67
2021/04/02 00:43:01;;;;;;;18.58;5.82;;;;;;;3.08;81.78;100940.31;5103678;28;20027;-67
2021/04/02 00:45:26;;;;;;;17.05;5.35;;;;;;;3.04;82.03;100936.78;5103541;28;20024;-66
2021/04/02 00:47:54;;;;;;;17.08;7.15;;;;;;;3.07;82.44;100936.88;5103623;28;20016;-66
2021/04/02 00:50:23;;;;;;;17.02;6.20;;;;;;;3.08;82.41;100930.06;5103512;28;20020;-66
2021/04/02 00:52:48;;;;;;;15.75;5.72;;;;;;;3.09;82.44;100921.53;5103448;28;20028;-66
2021/04/02 00:55:14;;;;;;;17.25;6.25;;;;;;;3.12;82.88;100919.03;5103012;28;20039;-67
2021/04/02 00:57:40;;;;;;;18.55;6.68;;;;;;;3.16;83.11;100923.47;5103216;28;20020;-66
2021/04/02 01:00:08;;;;;;;17.65;6.10;;;;;;;3.22;83.20;100915.94;5103312;28;20475;-68
2021/04/02 01:02:34;;;;;;;24.00;7.00;;;;;;;3.29;83.50;100914.41;5103089;28;20024;-66
2021/04/02 01:05:04;;;;;;;13.40;6.57;;;;;;;3.43;83.37;100903.69;5103262;28;20024;-66
2021/04/02 01:07:29;;;;;;;19.67;6.50;;;;;;;3.51;83.58;100902.22;5103109;28;20012;-66
2021/04/02 01:09:54;;;;;;;18.55;6.70;;;;;;;3.57;83.48;100889.56;5103417;28;20046;-66
2021/04/02 01:12:20;;;;;;;18.38;6.22;;;;;;;3.65;83.33;100891.47;5103296;28;20024;-67
2021/04/02 01:14:45;;;;;;;15.57;6.15;;;;;;;3.71;83.25;100887.38;5103268;28;20023;-67
2021/04/02 01:17:11;;;;;;;16.75;6.88;;;;;;;3.75;82.76;100879.75;5102666;28;20483;-66
2021/04/02 01:19:44;;;;;;;18.30;6.70;;;;;;;3.77;82.84;100867.84;5103129;28;20020;-68
2021/04/02 01:22:20;;;;;;;14.45;7.20;;;;;;;3.90;82.56;100872.47;5103196;28;20020;-67
2021/04/02 01:25:24;;;;;;;16.48;6.68;;;;;;;3.95;82.57;100872.56;5085000;28;20023;-67
2021/04/02 01:28:05;;;;;;;18.40;7.53;;;;;;;3.97;82.43;100874.38;5050678;28;20040;-67
2021/04/02 01:30:32;;;;;;;24.47;7.77;;;;;;;4.03;82.27;100872.78;5103277;28;20050;-67
2021/04/02 01:33:00;;;;;;;18.23;7.57;;;;;;;4.05;82.39;100859.16;5102541;28;20021;-66
2021/04/02 01:35:32;;;;;;;19.25;7.57;;;;;;;4.13;82.27;100859.34;5103050;28;20020;-66
2021/04/02 01:38:26;;;;;;;19.55;7.18;;;;;;;4.06;82.21;100832.63;5103688;28;20028;-68
2021/04/02 01:40:56;;;;;;;21.52;7.13;;;;;;;4.16;82.05;100838.00;5094915;28;20074;-67
2021/04/02 01:43:37;;;;;;;22.25;7.45;;;;;;;4.20;82.05;100830.38;5106738;28;20087;-68
2021/04/02 01:46:07;;;;;;;21.95;8.35;;;;;;;4.25;81.92;100834.78;5106575;28;20024;-67
2021/04/02 01:48:34;;;;;;;28.25;7.20;;;;;;;4.26;81.69;100824.56;5106104;28;20465;-67
2021/04/02 01:51:01;;;;;;;23.88;7.13;;;;;;;4.27;81.49;100816.00;5106500;28;20403;-67
2021/04/02 01:53:31;;;;;;;20.58;7.13;;;;;;;4.31;81.24;100815.22;5106163;28;20020;-67
2021/04/02 01:55:57;;;;;;;16.95;6.03;;;;;;;4.30;81.08;100815.19;5087916;28;20463;-68
2021/04/02 01:58:23;;;;;;;25.92;7.13;;;;;;;4.29;81.09;100816.91;5106088;28;20024;-67
2021/04/02 02:00:52;;;;;;;11.70;7.07;;;;;;;4.32;80.91;100819.56;5087796;28;20048;-67
2021/04/02 02:03:18;;;;;;;17.00;6.18;;;;;;;4.31;80.67;100815.22;5105662;28;20020;-69
2021/04/02 02:05:47;;;;;;;25.13;7.18;;;;;;;4.31;80.55;100819.53;5106126;28;20031;-68
2021/04/02 02:08:14;;;;;;;16.42;5.70;;;;;;;4.24;80.67;100808.22;5105606;28;20045;-67
2021/04/02 02:10:40;;;;;;;17.13;5.88;;;;;;;4.27;80.35;100812.53;5088011;28;20039;-68
2021/04/02 02:13:07;;;;;;;17.33;6.40;;;;;;;4.26;80.58;100814.28;5106023;28;20389;-68
2021/04/02 02:15:37;;;;;;;16.45;5.97;;;;;;;4.31;80.24;100812.66;5106104;28;20028;-67
2021/04/02 02:18:10;;;;;;;19.88;6.05;;;;;;;4.33;80.26;100795.56;5105529;28;20047;-68
2021/04/02 02:20:38;;;;;;;18.33;6.88;;;;;;;4.33;80.26;100799.84;5106082;28;20034;-68
2021/04/02 02:23:04;;;;;;;19.10;8.02;;;;;;;4.33;80.35;100799.84;5105735;28;20404;-68
2021/04/02 02:25:31;;;;;;;17.83;7.63;;;;;;;4.37;80.30;100788.81;5105902;28;20123;-67
2021/04/02 02:27:57;;;;;;;25.92;8.43;;;;;;;4.37;80.34;100782.78;5105340;28;20058;-68
2021/04/02 02:30:26;;;;;;;17.27;6.97;;;;;;;4.44;80.17;100782.13;5105713;28;20020;-67
2021/04/02 02:32:52;;;;;;;32.85;8.30;;;;;;;4.47;80.16;100774.47;5105423;28;20058;-67
2021/04/02 02:35:17;;;;;;;22.70;8.02;;;;;;;4.50;80.25;100771.97;5105705;28;20024;-67
2021/04/02 02:37:44;;;;;;;25.95;7.78;;;;;;;4.55;80.04;100772.91;5105292;28;20069;-67
2021/04/02 02:40:24;;;;;;;30.40;7.95;;;;;;;4.55;80.16;100770.34;5105649;28;20093;-68
2021/04/02 02:42:52;;;;;;;31.52;8.73;;;;;;;4.54;80.21;100771.19;5105467;28;20035;-68
2021/04/02 02:45:18;;;;;;;24.15;8.15;;;;;;;4.53;80.42;100766.00;5105655;28;20012;-67
2021/04/02 02:47:43;;;;;;;30.92;10.55;;;;;;;4.59;80.33;100763.56;5105115;28;20024;-67
2021/04/02 02:50:22;;;;;;;27.00;10.35;;;;;;;4.65;80.22;100763.72;5104563;28;20484;-67
2021/04/02 02:52:48;;;;;;;33.35;9.45;;;;;;;4.69;80.43;100764.66;5105385;28;20031;-66
2021/04/02 02:55:16;;;;;;;49.38;10.30;;;;;;;4.69;80.37;100762.97;5105046;28;20091;-67
2021/04/02 02:57:43;;;;;;;33.38;10.13;;;;;;;4.71;80.36;100750.97;5104616;28;20031;-67
2021/04/02 03:00:16;;;;;;;38.92;12.05;;;;;;;4.78;80.31;100756.25;5105003;28;20077;-66
2021/04/02 03:02:45;;;;;;;36.83;11.80;;;;;;;4.83;80.23;100750.38;5104817;28;20624;-67
2021/04/02 03:05:13;;;;;;;34.13;12.23;;;;;;;4.84;80.40;100748.66;5104896;28;20027;-68
2021/04/02 03:07:39;;;;;;;30.25;12.52;;;;;;;4.90;80.15;100745.38;5104780;28;20027;-66
2021/04/02 03:10:10;;;;;;;43.70;13.10;;;;;;;4.89;80.19;100748.78;5104616;28;20484;-67
2021/04/02 03:12:38;;;;;;;27.75;8.55;;;;;;;4.87;79.98;100741.03;5104601;28;20032;-68
2021/04/02 03:15:04;;;;;;;31.58;10.18;;;;;;;4.79;79.67;100740.00;5104729;28;20020;-67
2021/04/02 03:17:31;;;;;;;26.15;8.32;;;;;;;4.78;79.85;100749.41;5104350;28;20062;-66
2021/04/02 03:19:59;;;;;;;22.60;7.75;;;;;;;4.77;79.90;100741.66;5104896;28;20024;-68
2021/04/02 03:22:28;;;;;;;35.95;9.52;;;;;;;4.77;80.04;100739.97;5104115;28;20039;-68
2021/04/02 03:24:55;;;;;;;34.17;7.88;;;;;;;4.66;79.94;100729.47;5104463;28;20068;-67
2021/04/02 03:27:20;;;;;;;26.20;8.60;;;;;;;4.68;79.79;100739.78;5104182;28;20044;-66
2021/04/02 03:29:46;;;;;;;25.13;8.50;;;;;;;4.64;79.72;100737.97;5104431;28;20026;-67
2021/04/02 03:32:12;;;;;;;31.77;7.95;;;;;;;4.53;80.10;100714.59;5104510;28;20043;-66
2021/04/02 03:34:40;;;;;;;27.48;7.63;;;;;;;4.63;79.78;100724.25;5104483;28;20056;-67
2021/04/02 03:37:10;;;;;;;22.85;7.38;;;;;;;4.71;79.71;100742.41;5104372;28;20028;-67
2021/04/02 03:39:40;;;;;;;26.83;8.23;;;;;;;4.65;79.59;100730.28;5104404;28;20028;-68
2021/04/02 03:42:09;;;;;;;22.65;8.65;;;;;;;4.61;79.54;100731.06;5104488;28;20024;-67
2021/04/02 03:44:37;;;;;;;25.50;8.10;;;;;;;4.58;79.41;100736.13;5104210;28;20023;-67
2021/04/02 03:47:07;;;;;;;19.05;7.57;;;;;;;4.59;79.58;100730.16;5104400;28;20024;-67
2021/04/02 03:49:35;;;;;;;26.10;7.35;;;;;;;4.59;79.61;100733.59;5103905;28;20022;-67
2021/04/02 03:52:07;;;;;;;24.95;9.45;;;;;;;4.55;79.83;100723.22;5103930;28;20400;-68
2021/04/02 03:54:35;;;;;;;16.45;8.93;;;;;;;4.55;79.50;100730.94;5104101;28;20020;-68
2021/04/02 03:57:02;;;;;;;20.73;8.82;;;;;;;4.46;79.50;100724.75;5103891;28;20023;-68
2021/04/02 03:59:30;;;;;;;21.77;9.10;;;;;;;4.45;79.63;100724.72;5104004;28;20444;-68
2021/04/02 04:01:55;;;;;;;33.10;9.77;;;;;;;4.36;79.70;100711.66;5103853;28;20034;-67
2021/04/02 04:04:26;;;;;;;29.00;9.10;;;;;;;4.39;79.86;100717.75;5103394;28;20106;-68
2021/04/02 04:06:53;;;;;;;30.10;9.98;;;;;;;4.40;79.77;100718.59;5104019;28;20485;-67
2021/04/02 04:09:22;;;;;;;24.90;9.40;;;;;;;4.38;79.59;100722.84;5103877;28;20028;-67
2021/04/02 04:11:49;;;;;;;30.70;9.05;;;;;;;4.34;79.25;100716.75;5103898;28;20095;-67
2021/04/02 04:14:16;;;;;;;19.33;8.50;;;;;;;4.36;79.41;100717.66;5103919;28;20076;-67
2021/04/02 04:16:43;;;;;;;28.15;9.50;;;;;;;4.28;79.33;100711.50;5103631;28;20028;-67
2021/04/02 04:19:09;;;;;;;22.67;8.32;;;;;;;4.27;79.24;100709.72;5103606;28;20020;-68
2021/04/02 04:21:38;;;;;;;28.17;9.77;;;;;;;4.20;79.46;100707.03;5103998;28;20032;-68
2021/04/02 04:24:05;;;;;;;23.98;8.80;;;;;;;4.14;79.42;100703.47;5103671;28;20544;-68
2021/04/02 04:26:32;;;;;;;30.95;9.23;;;;;;;4.10;79.60;100705.09;5103288;28;20048;-68
2021/04/02 04:28:59;;;;;;;16.05;8.52;;;;;;;4.05;79.63;100698.97;5103648;28;20023;-67
2021/04/02 04:31:24;;;;;;;22.77;8.85;;;;;;;4.01;79.63;100699.75;5103562;28;20316;-68
2021/04/02 04:33:52;;;;;;;23.95;8.50;;;;;;;4.00;79.65;100692.84;5085029;28;20487;-68
2021/04/02 04:36:19;;;;;;;20.60;8.57;;;;;;;4.02;79.54;100701.47;5103413;28;20020;-68
2021/04/02 04:38:46;;;;;;;27.17;9.52;;;;;;;4.03;79.58;100698.06;5103481;28;20384;-67
2021/04/02 04:41:15;;;;;;;26.15;8.70;;;;;;;3.99;79.47;100699.72;5103699;28;20028;-67
2021/04/02 04:43:43;;;;;;;29.23;9.02;;;;;;;4.07;79.74;100711.00;5103441;28;20019;-67
2021/04/02 04:46:08;;;;;;;24.23;9.18;;;;;;;4.03;79.52;100696.38;5085364;28;20020;-67
2021/04/02 04:48:34;;;;;;;29.63;10.07;;;;;;;4.08;79.55;100701.63;5103095;28;20026;-68
2021/04/02 04:50:59;;;;;;;21.85;8.43;;;;;;;4.10;79.66;100694.81;5103559;28;20024;-68
2021/04/02 04:53:30;;;;;;;29.80;9.68;;;;;;;4.08;79.58;100707.63;5103027;28;20047;-68
2021/04/02 04:56:01;;;;;;;28.85;9.25;;;;;;;4.05;79.68;100701.53;5103502;28;20049;-67
2021/04/02 04:58:34;;;;;;;22.83;9.65;;;;;;;4.06;79.82;100695.56;5103301;28;20023;-67
2021/04/02 05:01:08;;;;;;;25.20;8.52;;;;;;;4.10;79.90;100699.97;5103374;28;20034;-67
2021/04/02 05:03:35;;;;;;;24.88;9.32;;;;;;;4.15;79.69;100712.91;5103233;28;20021;-68
2021/04/02 05:06:02;;;;;;;16.35;5.60;;;;;;;4.14;79.71;100706.88;5103493;28;20013;-68
2021/04/02 05:08:33;;;;;;;18.75;7.40;;;;;;;4.12;79.82;100698.28;5103224;28;20093;-67
2021/04/02 05:11:00;;;;;;;25.75;7.40;;;;;;;4.15;79.78;100702.63;5103265;28;20024;-68
2021/04/02 05:13:28;;;;;;;22.70;7.55;;;;;;;4.13;79.86;100706.84;5105130;28;20097;-68
2021/04/02 05:15:54;;;;;;;14.50;6.60;;;;;;;4.12;79.91;100705.13;5107226;28;20506;-69
2021/04/02 05:18:20;;;;;;;28.23;8.73;;;;;;;4.10;79.76;100699.97;5088383;28;20054;-70
2021/04/02 05:20:46;;;;;;;23.50;7.60;;;;;;;4.15;79.92;100700.94;5106890;28;20083;-69
2021/04/02 05:23:14;;;;;;;16.05;6.50;;;;;;;4.21;79.85;100700.19;5106890;28;20028;-68
2021/04/02 05:25:39;;;;;;;13.00;6.03;;;;;;;4.22;79.71;100702.81;5106938;28;20024;-68
2021/04/02 05:28:05;;;;;;;21.15;6.68;;;;;;;4.18;79.81;100695.88;5106547;28;20078;-68
2021/04/02 05:30:32;;;;;;;22.80;6.55;;;;;;;4.15;79.67;100689.78;5106936;28;20024;-68
2021/04/02 05:33:00;;;;;;;21.13;6.70;;;;;;;4.12;79.72;100692.28;5106422;28;20455;-68
2021/04/02 05:35:26;;;;;;;26.55;7.65;;;;;;;4.08;79.78;100697.34;5106777;28;20035;-68
2021/04/02 05:37:51;;;;;;;24.05;7.43;;;;;;;4.09;80.11;100698.19;5106499;28;20055;-67
2021/04/02 05:40:18;;;;;;;24.83;8.38;;;;;;;4.14;80.14;100688.06;5106520;28;20020;-67
2021/04/02 05:43:09;;;;;;;17.88;6.15;;;;;;;4.33;80.31;100687.59;5106452;28;20031;-68
2021/04/02 05:45:37;;;;;;;20.48;5.47;;;;;;;4.52;80.12;100688.00;5106016;28;20115;-68
2021/04/02 05:48:02;;;;;;;15.73;5.70;;;;;;;4.59;80.00;100689.88;5105964;28;20020;-69
2021/04/02 05:50:30;;;;;;;19.00;5.38;;;;;;;4.62;79.88;100681.34;5106476;28;20073;-69
2021/04/02 05:53:01;;;;;;;22.88;6.82;;;;;;;4.73;79.77;100702.13;5106210;28;20039;-65
2021/04/02 05:55:27;;;;;;;18.63;5.03;;;;;;;4.84;80.05;100707.50;5106638;28;20047;-65
2021/04/02 05:57:53;;;;;;;18.52;4.07;;;;;;;5.05;79.75;100709.63;5106179;28;20076;-64
2021/04/02 06:00:19;;;;;;;17.60;4.70;;;;;;;5.35;80.00;100705.06;5106411;28;20020;-64
2021/04/02 06:02:45;;;;;;;16.10;4.90;;;;;;;5.86;80.75;100705.03;5106028;28;20031;-64
2021/04/02 06:05:11;;;;;;;13.80;3.70;;;;;;;6.64;81.80;100711.31;5106341;28;20020;-65
2021/04/02 06:07:38;;;;;;;15.23;4.00;;;;;;;7.54;81.71;100689.91;5105863;28;20045;-64
2021/04/02 06:10:05;;;;;;;6.97;3.03;;;;;;;8.55;80.81;100693.16;5105842;28;20030;-64
2021/04/02 06:12:34;;;;;;;17.98;3.70;;;;;;;9.01;77.98;100696.78;5106099;28;20028;-64
2021/04/02 06:15:01;;;;;;;19.98;5.00;;;;;;;9.14;74.31;100695.09;5087857;28;20020;-65
2021/04/02 06:17:30;;;;;;;15.95;5.28;;;;;;;8.92;74.13;100695.03;5105869;28;20112;-66
2021/04/02 06:20:06;;;;;;;10.80;4.35;;;;;;;8.74;73.32;100708.75;5106000;28;20092;-64
2021/04/02 06:22:31;;;;;;;12.30;4.72;;;;;;;8.53;72.95;100697.44;5105738;28;20099;-65
2021/04/02 06:25:01;;;;;;;15.70;4.90;;;;;;;8.36;72.96;100707.69;5104569;28;20031;-65
2021/04/02 06:27:29;;;;;;;15.82;4.60;;;;;;;8.11;71.48;100704.09;5105604;28;20044;-64
2021/04/02 06:30:01;;;;;;;11.40;3.92;;;;;;;7.84;70.97;100703.03;5105694;28;20024;-65
2021/04/02 06:32:35;;;;;;;11.30;3.85;;;;;;;7.62;70.68;100702.88;5105830;28;20089;-62
2021/04/02 06:35:10;;;;;;;11.10;3.28;;;;;;;7.49;70.31;100704.47;5105410;28;20091;-63
2021/04/02 06:37:36;;;;;;;11.13;3.53;;;;;;;7.59;70.04;100703.69;5105216;28;20585;-63
2021/04/02 06:40:09;;;;;;;14.07;3.50;;;;;;;8.22;72.39;100705.03;5105329;28;20044;-63
2021/04/02 06:42:34;;;;;;;8.88;3.38;;;;;;;9.47;70.12;100704.63;5105629;28;20020;-65
2021/04/02 06:45:08;;;;;;;6.45;2.97;;;;;;;10.25;67.19;100708.06;5105346;28;20077;-63
2021/04/02 06:47:34;;;;;;;10.05;3.40;;;;;;;10.23;65.42;100702.00;5105198;28;20020;-64
2021/04/02 06:49:59;;;;;;;10.18;3.38;;;;;;;9.86;64.84;100707.22;5105328;28;20024;-64
2021/04/02 06:52:25;;;;;;;6.80;3.10;;;;;;;9.59;64.33;100694.28;5105393;28;20174;-63
2021/04/02 06:54:54;;;;;;;12.05;3.30;;;;;;;9.28;64.05;100694.25;5105265;28;20043;-63
2021/04/02 06:57:23;;;;;;;12.23;2.97;;;;;;;8.97;62.73;100689.88;5105186;28;20099;-64
2021/04/02 06:59:52;;;;;;;6.28;2.40;;;;;;;8.58;62.67;100692.31;5104959;28;20058;-67
2021/04/02 07:02:20;;;;;;;6.60;2.60;;;;;;;8.30;63.72;100700.78;5104952;28;20487;-66
2021/04/02 07:04:48;;;;;;;6.75;2.90;;;;;;;8.28;64.59;100705.06;5103946;28;20111;-66
2021/04/02 07:07:14;;;;;;;5.43;2.35;;;;;;;8.45;64.18;100708.63;5104487;28;20027;-65
2021/04/02 07:09:41;;;;;;;5.75;2.05;;;;;;;8.66;63.52;100695.78;5104600;28;20032;-66
2021/04/02 07:12:09;;;;;;;5.63;2.20;;;;;;;8.82;62.51;100701.03;5104168;28;20126;-66
2021/04/02 07:14:35;;;;;;;6.55;2.22;;;;;;;8.92;62.95;100679.50;5103396;28;20352;-66
2021/04/02 07:17:01;;;;;;;5.57;2.45;;;;;;;9.18;62.68;100689.03;5104423;28;20343;-72
2021/04/02 07:19:28;;;;;;;5.22;2.17;;;;;;;9.26;60.51;100690.78;5104240;28;20472;-72
2021/04/02 07:21:54;;;;;;;4.25;2.10;;;;;;;9.11;59.50;100696.78;5104347;28;20023;-72
2021/04/02 07:24:20;;;;;;;3.70;2.10;;;;;;;9.22;61.07;100689.06;5104447;28;20481;-73
2021/04/02 07:26:50;;;;;;;6.82;2.35;;;;;;;9.89;60.35;100692.53;5104693;28;20072;-72
2021/04/02 07:29:17;;;;;;;2.67;1.42;;;;;;;10.63;59.01;100692.38;5104399;28;20477;-71
2021/04/02 07:31:44;;;;;;;4.32;1.70;;;;;;;11.00;58.22;100684.44;5104439;28;20020;-73
2021/04/02 07:34:11;;;;;;;6.68;2.17;;;;;;;10.80;54.68;100692.31;5104367;28;20111;-71
2021/04/02 07:36:37;;;;;;;3.70;1.92;;;;;;;10.29;52.96;100693.31;5104186;28;20024;-73
2021/04/02 07:39:12;;;;;;;6.25;1.55;;;;;;;9.75;55.00;100694.25;5104626;28;20381;-71
2021/04/02 07:41:44;;;;;;;4.28;1.95;;;;;;;9.65;55.87;100694.28;5085999;28;20068;-72
2021/04/02 07:44:14;;;;;;;3.63;1.80;;;;;;;9.46;55.19;100696.00;5104202;28;20077;-72
2021/04/02 07:46:42;;;;;;;5.05;2.22;;;;;;;9.43;55.39;100690.81;5104348;28;20095;-74
2021/04/02 07:49:20;;;;;;;4.28;1.60;;;;;;;9.47;53.72;100695.16;5103475;28;20065;-72
2021/04/02 07:51:50;;;;;;;4.88;1.50;;;;;;;9.30;53.94;100679.56;5086219;28;20047;-73
2021/04/02 07:54:22;;;;;;;3.45;1.60;;;;;;;9.02;53.17;100690.75;5085472;28;20032;-71
2021/04/02 07:56:52;;;;;;;2.20;1.27;;;;;;;8.68;53.73;100688.03;5103915;28;20399;-70
2021/04/02 07:59:33;;;;;;;4.72;1.80;;;;;;;8.45;55.08;100686.16;5103706;28;20024;-67
2021/04/02 08:02:03;;;;;;;5.68;2.20;;;;;;;8.53;55.09;100683.66;5104094;28;20031;-67
2021/04/02 08:04:43;;;;;;;4.57;1.65;;;;;;;8.54;55.05;100691.44;5085354;28;20040;-68
2021/04/02 08:07:31;;;;;;;4.35;1.45;;;;;;;8.64;55.25;100676.78;5104003;28;20016;-66
2021/04/02 08:09:56;;;;;;;3.08;1.35;;;;;;;8.84;54.85;100681.19;5103805;28;20122;-67
2021/04/02 08:12:22;;;;;;;2.97;1.73;;;;;;;9.16;54.20;100697.69;5085537;28;20028;-68
2021/04/02 08:14:50;;;;;;;4.65;1.35;;;;;;;9.34;52.78;100694.25;5086040;28;20027;-67
2021/04/02 08:17:23;;;;;;;4.70;1.42;;;;;;;9.40;52.12;100695.97;5103862;28;20055;-66
2021/04/02 08:19:48;;;;;;;5.45;1.40;;;;;;;9.78;52.69;100694.25;5103530;28;20020;-67
2021/04/02 08:22:17;;;;;;;3.58;1.00;;;;;;;10.45;51.13;100688.09;5103595;28;20023;-66
2021/04/02 08:24:45;;;;;;;2.78;1.15;;;;;;;10.94;50.78;100688.78;5103263;28;20040;-67
2021/04/02 08:27:11;;;;;;;4.70;1.30;;;;;;;11.53;47.78;100681.44;5103344;28;20067;-66
2021/04/02 08:29:38;;;;;;;3.22;1.30;;;;;;;11.80;48.19;100685.56;5085253;28;20053;-67
2021/04/02 08:32:07;;;;;;;3.95;1.50;;;;;;;12.17;46.91;100682.66;5103724;28;20020;-66
2021/04/02 08:34:34;;;;;;;3.78;1.20;;;;;;;12.42;46.04;100684.09;5103227;28;20027;-72
2021/04/02 08:37:04;;;;;;;3.88;1.58;;;;;;;13.04;45.65;100672.88;5103463;28;20099;-68
2021/04/02 08:39:30;;;;;;;2.40;1.33;;;;;;;13.49;42.73;100673.94;5103389;28;20024;-68
2021/04/02 08:41:56;;;;;;;2.63;1.30;;;;;;;13.89;42.45;100672.44;5103750;28;20046;-69
2021/04/02 08:44:36;;;;;;;6.90;1.40;;;;;;;14.64;40.57;100665.78;5085377;28;20035;-69
2021/04/02 08:47:05;;;;;;;3.00;1.30;;;;;;;14.78;39.48;100675.03;5085496;28;20055;-67
2021/04/02 08:49:47;;;;;;;4.03;1.30;;;;;;;15.07;39.65;100671.84;5107227;28;20027;-71
2021/04/02 08:52:18;;;;;;;3.47;1.20;;;;;;;15.53;39.12;100678.63;5107758;28;20029;-71
2021/04/02 08:54:45;;;;;;;3.30;1.70;;;;;;;15.89;37.75;100681.19;5089488;28;20052;-72
2021/04/02 08:57:12;;;;;;;2.90;1.35;;;;;;;16.38;37.87;100667.66;5107304;28;20035;-67
2021/04/02 08:59:47;;;;;;;3.55;1.10;;;;;;;16.97;35.46;100646.72;5107322;28;20040;-66
2021/04/02 09:02:16;;;;;;;6.25;1.40;;;;;;;17.59;34.66;100657.00;5108165;28;20020;-63
2021/04/02 09:04:43;;;;;;;2.90;1.30;;;;;;;17.89;32.55;100656.84;5088929;28;20031;-70
2021/04/02 09:07:12;;;;;;;5.07;1.83;;;;;;;17.89;32.50;100656.00;5107212;28;20027;-69
2021/04/02 09:09:43;;;;;;;1.83;1.10;;;;;;;17.53;32.32;100650.19;5089147;28;20024;-70
2021/04/02 09:12:14;;;;;;;2.42;1.27;;;;;;;16.65;33.14;100656.41;5110609;28;20024;-69
2021/04/02 09:14:46;;;;;;;2.47;1.15;;;;;;;15.77;33.89;100657.97;5107361;28;20024;-70
2021/04/02 09:17:22;;;;;;;2.75;1.25;;;;;;;15.04;35.25;100652.72;5112808;28;20028;-69
2021/04/02 09:19:48;;;;;;;5.22;1.20;;;;;;;14.44;35.39;100650.53;5117340;28;20093;-69
2021/04/02 09:22:14;;;;;;;2.70;1.20;;;;;;;13.96;36.24;100663.59;5101949;28;20028;-69
2021/04/02 09:24:41;;;;;;;4.13;1.48;;;;;;;13.56;36.42;100659.09;5118961;28;20058;-70
2021/04/02 09:27:13;;;;;;;2.25;1.20;;;;;;;13.13;37.53;100653.66;5109031;28;20496;-69
2021/04/02 09:29:41;;;;;;;2.65;1.50;;;;;;;12.94;38.48;100648.69;5105465;28;20027;-70
2021/04/02 09:32:07;;;;;;;2.30;1.23;;;;;;;12.83;38.81;100645.38;5105268;28;20087;-69
2021/04/02 09:34:33;;;;;;;4.13;1.00;;;;;;;12.93;39.24;100644.38;5106656;28;20020;-70
2021/04/02 09:36:59;;;;;;;4.03;1.38;;;;;;;12.93;38.06;100644.38;5106814;28;20017;-70
2021/04/02 09:39:26;;;;;;;3.75;1.10;;;;;;;12.58;38.11;100643.09;5106794;28;20476;-69
2021/04/02 09:41:53;;;;;;;1.65;1.20;;;;;;;12.50;39.80;100645.81;5107114;28;20031;-69
2021/04/02 09:44:21;;;;;;;1.98;1.20;;;;;;;12.85;39.77;100641.00;5106856;28;20024;-70
2021/04/02 09:46:49;;;;;;;4.35;1.50;;;;;;;13.16;38.85;100643.19;5106282;28;20038;-70
2021/04/02 09:49:23;;;;;;;3.55;1.40;;;;;;;13.27;38.87;100638.63;5087802;28;20020;-69
2021/04/02 09:51:55;;;;;;;4.63;1.33;;;;;;;13.50;39.25;100644.34;5106761;28;20105;-70
2021/04/02 09:54:25;;;;;;;2.08;1.30;;;;;;;13.61;37.40;100642.47;5106478;28;20023;-70
2021/04/02 09:56:53;;;;;;;2.90;1.10;;;;;;;13.54;38.20;100634.78;5106238;28;20020;-69
2021/04/02 09:59:18;;;;;;;4.45;1.30;;;;;;;13.70;38.22;100649.28;5105970;28;20099;-69
2021/04/02 10:01:44;;;;;;;3.38;1.20;;;;;;;13.79;37.44;100644.78;5106278;28;20322;-68
2021/04/02 10:04:11;;;;;;;2.45;1.17;;;;;;;13.81;37.63;100643.00;5105904;28;20138;-69
2021/04/02 10:06:38;;;;;;;2.25;1.20;;;;;;;13.69;36.73;100652.75;5106206;28;20027;-68
2021/04/02 10:09:05;;;;;;;3.15;1.17;;;;;;;13.48;37.27;100649.59;5105607;28;20023;-66
2021/04/02 10:11:31;;;;;;;4.50;1.20;;;;;;;13.34;38.39;100647.22;5105841;28;20027;-66
2021/04/02 10:13:57;;;;;;;3.30;1.25;;;;;;;13.30;38.48;100652.53;5105576;28;20085;-68
2021/04/02 10:16:23;;;;;;;3.28;1.30;;;;;;;13.24;38.29;100656.09;5105932;28;20036;-64
2021/04/02 10:18:50;;;;;;;3.85;1.25;;;;;;;13.06;37.64;100645.06;5105456;28;20645;-67
2021/04/02 10:21:17;;;;;;;3.15;1.50;;;;;;;12.87;37.57;100653.16;5105945;28;20038;-69
2021/04/02 10:23:42;;;;;;;2.40;1.58;;;;;;;12.73;37.46;100652.47;5105825;28;20054;-64
2021/04/02 10:26:08;;;;;;;1.77;1.20;;;;;;;12.60;37.79;100662.19;5105349;28;20043;-66
2021/04/02 10:28:34;;;;;;;3.80;1.40;;;;;;;12.51;38.03;100657.94;5087202;28;20035;-64
2021/04/02 10:31:00;;;;;;;1.92;1.30;;;;;;;12.41;38.81;100646.81;5105534;28;20102;-64
2021/04/02 10:33:25;;;;;;;3.97;1.20;;;;;;;12.51;38.73;100651.00;5105163;28;20023;-63
2021/04/02 10:35:51;;;;;;;3.90;1.90;;;;;;;12.55;39.32;100658.78;5105666;28;20022;-64
2021/04/02 10:38:16;;;;;;;4.18;1.33;;;;;;;12.51;38.55;100660.56;5105255;28;20043;-67
2021/04/02 10:40:42;;;;;;;2.70;1.20;;;;;;;12.51;39.02;100655.34;5105449;28;20020;-62
2021/04/02 10:43:08;;;;;;;2.75;1.20;;;;;;;12.59;39.37;100655.25;5105276;28;20028;-65
2021/04/02 10:45:34;;;;;;;5.95;1.80;;;;;;;12.59;39.34;100650.03;5105288;28;20024;-63
2021/04/02 10:48:01;;;;;;;3.83;1.92;;;;;;;12.60;39.75;100654.38;5104842;28;20022;-66
2021/04/02 10:50:27;;;;;;;6.22;1.90;;;;;;;12.64;40.42;100650.84;5105129;28;20027;-63
2021/04/02 10:52:53;;;;;;;5.38;1.70;;;;;;;12.84;40.49;100645.34;5105055;28;20038;-60
2021/04/02 10:55:19;;;;;;;3.17;1.60;;;;;;;13.04;40.05;100651.16;5105058;28;20015;-62
2021/04/02 10:57:45;;;;;;;4.63;2.00;;;;;;;13.23;39.34;100655.22;5104933;28;20028;-60
2021/04/02 11:00:13;;;;;;;4.45;1.92;;;;;;;13.37;39.76;100660.22;5104829;28;20031;-62
2021/04/02 11:02:39;;;;;;;8.10;2.03;;;;;;;13.62;39.84;100653.78;5105373;28;20458;-61
2021/04/02 11:05:06;;;;;;;4.53;2.08;;;;;;;13.79;39.81;100663.03;5104744;28;20031;-63
2021/04/02 11:07:32;;;;;;;3.50;2.05;;;;;;;13.92;39.12;100661.94;5104864;28;20019;-62
2021/04/02 11:09:57;;;;;;;5.07;2.08;;;;;;;13.98;39.42;100661.81;5104132;28;20020;-66
2021/04/02 11:12:29;;;;;;;2.90;2.20;;;;;;;13.96;38.31;100663.59;5104364;28;20024;-66
2021/04/02 11:14:55;;;;;;;5.00;2.30;;;;;;;13.81;38.98;100658.66;5086779;28;20027;-66
2021/04/02 11:17:22;;;;;;;4.18;2.10;;;;;;;13.71;39.15;100657.97;5086112;28;20372;-67
2021/04/02 11:19:48;;;;;;;4.10;2.13;;;;;;;13.51;39.25;100669.59;5104312;28;20034;-66
2021/04/02 11:22:13;;;;;;;5.57;2.25;;;;;;;13.24;39.67;100667.38;5104419;28;20044;-66
2021/04/02 11:24:39;;;;;;;4.85;1.88;;;;;;;12.94;40.70;100666.09;5104360;28;20493;-66
2021/04/02 11:27:04;;;;;;;3.25;1.70;;;;;;;13.00;41.62;100669.44;5104115;28;20055;-66
2021/04/02 11:29:30;;;;;;;5.68;1.90;;;;;;;13.32;41.58;100674.22;5104463;28;20091;-66
2021/04/02 11:31:55;;;;;;;4.10;2.33;;;;;;;13.48;41.19;100677.44;5086144;28;20047;-66